Time;durP1;ratioP1;P1;durP2;ratioP2;P2;SDS_P1;SDS_P2;PMS_P1;PMS_P2;Temp;Humidity;BMP_temperature;BMP_pressure;BME280_temperature;BME280_humidity;BME280_pressure;Samples;Min_cycle;Max_cycle;Signal;HPM_P1;HPM_P2
2023/11/12 00:02:10;;;;;;;4.32;2.63;;;;;;;20.38;62.16;100531.22;5038101;28;20027;-42
2023/11/12 00:04:36;;;;;;;5.47;2.40;;;;;;;20.34;62.00;100526.34;5042555;28;20029;-44
2023/11/12 00:07:02;;;;;;;3.88;2.72;;;;;;;20.32;62.17;100528.56;5043784;28;20051;-42
2023/11/12 00:09:28;;;;;;;4.53;2.80;;;;;;;20.30;62.22;100530.78;5069311;28;20025;-43
2023/11/12 00:11:54;;;;;;;3.92;2.47;;;;;;;20.28;62.34;100524.78;5036720;28;20500;-38
2023/11/12 00:14:19;;;;;;;5.57;2.30;;;;;;;20.27;62.05;100525.91;5041728;28;20040;-37
2023/11/12 00:16:44;;;;;;;4.38;2.35;;;;;;;20.25;61.96;100522.63;5016267;28;21012;-38
2023/11/12 00:19:10;;;;;;;4.35;2.30;;;;;;;20.24;62.10;100526.50;5029910;28;20361;-39
2023/11/12 00:21:35;;;;;;;3.35;2.38;;;;;;;20.22;62.25;100526.00;5045929;28;20040;-39
2023/11/12 00:24:02;;;;;;;3.33;2.38;;;;;;;20.20;62.34;100525.47;5047705;28;20432;-42
2023/11/12 00:26:28;;;;;;;5.90;2.58;;;;;;;20.17;62.50;100524.13;5045016;28;20023;-38
2023/11/12 00:28:55;;;;;;;4.18;2.13;;;;;;;20.15;62.68;100522.81;5031443;28;20029;-39
2023/11/12 00:31:23;;;;;;;4.05;2.63;;;;;;;20.15;62.48;100518.09;5067281;28;20030;-39
2023/11/12 00:33:49;;;;;;;5.45;2.40;;;;;;;20.14;62.81;100519.22;5039735;28;20112;-43
2023/11/12 00:36:14;;;;;;;3.53;2.47;;;;;;;20.13;62.39;100520.31;5041129;28;20466;-39
2023/11/12 00:38:40;;;;;;;5.57;2.30;;;;;;;20.12;62.56;100515.97;5041016;28;20037;-40
2023/11/12 00:41:08;;;;;;;3.13;2.20;;;;;;;20.11;62.67;100510.75;5038013;28;20021;-39
2023/11/12 00:43:34;;;;;;;5.70;2.25;;;;;;;20.11;62.52;100519.00;5033605;28;20037;-42
2023/11/12 00:46:00;;;;;;;2.63;2.30;;;;;;;20.09;62.41;100518.50;5046523;28;20454;-43
2023/11/12 00:48:27;;;;;;;2.47;2.20;;;;;;;20.07;62.59;100506.97;5038606;28;20044;-40
2023/11/12 00:50:52;;;;;;;3.03;2.30;;;;;;;20.06;62.67;100514.41;5051904;28;20040;-43
2023/11/12 00:53:18;;;;;;;4.05;2.40;;;;;;;20.05;62.67;100518.28;5034718;28;20136;-43
2023/11/12 00:55:43;;;;;;;4.68;2.20;;;;;;;20.03;62.74;100517.75;5047674;28;20144;-39
2023/11/12 00:58:09;;;;;;;4.30;2.20;;;;;;;20.01;62.72;100509.81;5047325;28;20504;-40
2023/11/12 01:00:34;;;;;;;5.22;2.30;;;;;;;20.00;62.48;100510.06;5045907;28;20079;-40
2023/11/12 01:03:02;;;;;;;3.80;2.25;;;;;;;19.98;62.47;100507.63;5049738;28;20024;-39
2023/11/12 01:05:27;;;;;;;6.78;2.10;;;;;;;19.99;62.66;100506.53;5055679;28;20052;-39
2023/11/12 01:07:53;;;;;;;4.75;2.13;;;;;;;19.98;62.67;100509.56;5055447;28;20025;-38
2023/11/12 01:10:18;;;;;;;4.75;2.38;;;;;;;19.97;62.91;100511.50;5045425;28;20399;-39
2023/11/12 01:12:43;;;;;;;3.90;2.17;;;;;;;19.95;62.30;100505.50;5026745;28;20017;-39
2023/11/12 01:15:09;;;;;;;4.85;1.85;;;;;;;19.94;62.80;100506.59;5031649;28;20504;-39
2023/11/12 01:17:35;;;;;;;3.92;2.13;;;;;;;19.93;62.46;100504.97;5050441;28;20474;-39
2023/11/12 01:20:00;;;;;;;2.97;1.90;;;;;;;19.91;62.39;100512.69;5039163;28;20082;-39
2023/11/12 01:22:27;;;;;;;2.72;1.80;;;;;;;19.92;62.53;100508.03;5048721;28;20036;-40
2023/11/12 01:24:52;;;;;;;2.05;1.85;;;;;;;19.89;62.36;100506.69;5053324;28;20029;-39
2023/11/12 01:27:18;;;;;;;8.25;1.95;;;;;;;19.87;62.81;100500.66;5056811;28;20461;-40
2023/11/12 01:29:43;;;;;;;3.03;1.83;;;;;;;19.86;62.78;100502.59;5048435;28;20444;-39
2023/11/12 01:32:09;;;;;;;2.45;1.80;;;;;;;19.85;62.63;100497.38;5046213;28;20040;-38
2023/11/12 01:34:35;;;;;;;2.55;1.75;;;;;;;19.84;62.58;100499.31;5033512;28;20044;-38
2023/11/12 01:37:00;;;;;;;3.67;1.92;;;;;;;19.82;62.53;100501.50;5050282;28;20020;-39
2023/11/12 01:39:26;;;;;;;2.45;2.03;;;;;;;19.81;62.50;100501.81;5051405;28;20115;-39
2023/11/12 01:41:52;;;;;;;2.88;2.00;;;;;;;19.79;62.60;100495.78;5053963;28;20017;-39
2023/11/12 01:44:17;;;;;;;2.90;1.85;;;;;;;19.78;62.49;100503.22;5048539;28;20101;-39
2023/11/12 01:46:42;;;;;;;3.78;1.83;;;;;;;19.78;62.44;100494.16;5037927;28;20024;-42
2023/11/12 01:49:08;;;;;;;5.07;1.80;;;;;;;19.77;62.54;100498.84;5045874;28;20029;-43
2023/11/12 01:51:33;;;;;;;2.20;1.63;;;;;;;19.77;62.60;100498.03;5057784;28;20067;-38
2023/11/12 01:53:59;;;;;;;2.63;1.67;;;;;;;19.76;62.60;100507.41;5052273;28;20029;-39
2023/11/12 01:56:25;;;;;;;2.95;2.10;;;;;;;19.75;62.64;100503.00;5046627;28;20423;-39
2023/11/12 01:58:52;;;;;;;2.58;1.70;;;;;;;19.73;62.48;100498.63;5040492;28;20567;-39
2023/11/12 02:01:19;;;;;;;2.90;1.77;;;;;;;19.73;62.41;100495.88;5035710;28;20037;-41
2023/11/12 02:03:45;;;;;;;2.40;1.80;;;;;;;19.72;62.47;100502.47;5053824;28;20035;-39
2023/11/12 02:06:12;;;;;;;2.45;1.88;;;;;;;19.70;62.66;100507.44;5062966;28;20025;-39
2023/11/12 02:08:40;;;;;;;3.72;1.90;;;;;;;19.71;62.69;100505.53;5038423;28;20033;-42
2023/11/12 02:11:09;;;;;;;2.17;1.67;;;;;;;19.69;62.80;100505.00;5072371;28;20444;-42
2023/11/12 02:13:38;;;;;;;3.15;1.90;;;;;;;19.68;62.43;100508.84;5066390;28;20030;-38
2023/11/12 02:16:04;;;;;;;7.03;2.30;;;;;;;19.66;62.67;100502.84;5036625;28;20374;-38
2023/11/12 02:18:30;;;;;;;2.92;2.00;;;;;;;19.66;62.48;100503.66;5041254;28;20024;-38
2023/11/12 02:20:55;;;;;;;4.47;2.10;;;;;;;19.64;62.68;100497.63;5039250;28;20031;-39
2023/11/12 02:23:20;;;;;;;3.05;1.95;;;;;;;19.65;62.56;100503.97;5054611;28;20123;-39
2023/11/12 02:25:46;;;;;;;5.70;2.28;;;;;;;19.64;62.62;100500.38;5046612;28;20060;-39
2023/11/12 02:28:18;;;;;;;3.70;1.80;;;;;;;19.64;62.82;100505.06;5045592;28;20025;-38
2023/11/12 02:30:44;;;;;;;4.38;2.08;;;;;;;19.63;62.77;100500.69;5050293;28;20030;-38
2023/11/12 02:33:09;;;;;;;5.70;1.80;;;;;;;19.64;62.77;100496.84;5056065;28;20032;-38
2023/11/12 02:35:36;;;;;;;2.30;1.90;;;;;;;19.61;62.63;100501.00;5044740;28;20044;-39
2023/11/12 02:38:04;;;;;;;2.40;1.60;;;;;;;19.61;62.71;100494.66;5037513;28;20120;-38
2023/11/12 02:40:29;;;;;;;3.28;2.15;;;;;;;19.60;62.86;100499.34;5052073;28;20065;-38
2023/11/12 02:42:55;;;;;;;2.65;1.73;;;;;;;19.61;62.85;100497.41;5043131;28;20065;-39
2023/11/12 02:45:20;;;;;;;4.75;2.05;;;;;;;19.60;62.72;100499.34;5046590;28;20036;-38
2023/11/12 02:47:46;;;;;;;3.25;1.70;;;;;;;19.60;63.14;100493.06;5044031;28;20116;-38
2023/11/12 02:50:31;;;;;;;2.60;1.73;;;;;;;19.59;62.53;100494.97;5048306;28;20543;-38
2023/11/12 02:53:01;;;;;;;1.65;1.55;;;;;;;19.59;62.65;100499.66;5054434;28;20081;-38
2023/11/12 02:55:33;;;;;;;2.00;1.77;;;;;;;19.58;62.77;100496.06;5053050;28;20049;-38
2023/11/12 02:57:59;;;;;;;2.35;1.88;;;;;;;19.58;62.56;100493.31;5050432;28;20075;-38
2023/11/12 03:00:28;;;;;;;2.15;1.60;;;;;;;19.58;62.99;100492.50;5048135;28;20024;-41
2023/11/12 03:02:58;;;;;;;3.13;1.75;;;;;;;19.56;62.76;100492.81;5051279;28;20714;-42
2023/11/12 03:05:24;;;;;;;2.33;1.77;;;;;;;19.56;63.00;100495.56;5048342;28;20502;-43
2023/11/12 03:07:50;;;;;;;3.20;1.80;;;;;;;19.56;62.92;100490.06;5038795;28;20514;-42
2023/11/12 03:10:16;;;;;;;4.00;1.77;;;;;;;19.56;62.71;100503.81;5060523;28;20067;-42
2023/11/12 03:12:41;;;;;;;3.30;1.77;;;;;;;19.56;62.85;100495.56;5055792;28;20041;-42
2023/11/12 03:15:08;;;;;;;4.95;2.10;;;;;;;19.55;63.08;100494.72;5062308;28;20359;-43
2023/11/12 03:17:34;;;;;;;2.17;1.70;;;;;;;19.55;62.99;100491.97;5038810;28;20429;-42
2023/11/12 03:20:00;;;;;;;5.50;1.80;;;;;;;19.56;63.07;100498.31;5036022;28;20029;-39
2023/11/12 03:22:26;;;;;;;2.80;1.83;;;;;;;19.54;62.92;100487.59;5055723;28;20499;-39
2023/11/12 03:24:52;;;;;;;1.90;1.70;;;;;;;19.54;63.29;100500.53;5052528;28;20437;-42
2023/11/12 03:27:19;;;;;;;5.38;1.67;;;;;;;19.54;63.24;100486.78;5051946;28;20021;-42
2023/11/12 03:29:45;;;;;;;2.25;1.52;;;;;;;19.52;63.24;100484.34;5046999;28;20021;-42
2023/11/12 03:32:11;;;;;;;3.70;1.98;;;;;;;19.51;63.14;100482.72;5034793;28;20504;-43
2023/11/12 03:34:37;;;;;;;2.70;1.70;;;;;;;19.50;63.32;100486.56;5039139;28;20033;-43
2023/11/12 03:37:02;;;;;;;1.63;1.50;;;;;;;19.50;63.25;100491.25;5084896;28;20449;-43
2023/11/12 03:39:28;;;;;;;2.10;1.45;;;;;;;19.49;63.38;100484.13;5051667;28;20021;-42
2023/11/12 03:41:53;;;;;;;2.63;1.70;;;;;;;19.48;63.43;100476.97;5066051;28;20824;-41
2023/11/12 03:44:18;;;;;;;2.80;1.65;;;;;;;19.48;63.58;100483.28;5058972;28;20538;-42
2023/11/12 03:46:44;;;;;;;2.78;1.75;;;;;;;19.48;63.43;100482.47;5042899;28;20147;-42
2023/11/12 03:49:09;;;;;;;2.22;1.63;;;;;;;19.46;63.44;100477.28;5034884;28;20071;-43
2023/11/12 03:51:35;;;;;;;3.25;1.85;;;;;;;19.46;63.44;100480.03;5042266;28;20116;-42
2023/11/12 03:54:02;;;;;;;3.95;1.73;;;;;;;19.46;63.62;100477.28;5030344;28;20026;-43
2023/11/12 03:56:28;;;;;;;2.40;1.73;;;;;;;19.45;63.42;100475.66;5042074;28;20048;-42
2023/11/12 03:58:53;;;;;;;2.55;1.50;;;;;;;19.44;63.24;100485.00;5040515;28;20397;-39
2023/11/12 04:01:18;;;;;;;3.10;2.03;;;;;;;19.43;63.57;100477.88;5061332;28;20036;-39
2023/11/12 04:03:44;;;;;;;1.60;1.50;;;;;;;19.42;63.38;100478.16;5044832;28;20033;-39
2023/11/12 04:06:10;;;;;;;4.05;1.60;;;;;;;19.44;63.44;100484.19;5063076;28;20107;-39
2023/11/12 04:08:36;;;;;;;1.98;1.70;;;;;;;19.42;63.48;100483.66;5053904;28;20107;-38
2023/11/12 04:11:01;;;;;;;2.70;1.77;;;;;;;19.42;63.33;100481.72;5054259;28;20331;-38
2023/11/12 04:13:27;;;;;;;2.28;1.60;;;;;;;19.41;63.65;100474.59;5045477;28;20402;-38
2023/11/12 04:15:53;;;;;;;3.03;1.80;;;;;;;19.40;63.41;100476.53;5054709;28;20025;-44
2023/11/12 04:18:18;;;;;;;2.13;1.70;;;;;;;19.38;63.71;100476.00;5052071;28;20028;-43
2023/11/12 04:20:43;;;;;;;2.22;1.60;;;;;;;19.39;63.86;100474.09;5044886;28;20028;-44
2023/11/12 04:23:09;;;;;;;3.30;2.00;;;;;;;19.37;63.51;100471.63;5059692;28;20477;-39
2023/11/12 04:25:35;;;;;;;2.58;1.80;;;;;;;19.38;63.55;100477.94;5054994;28;20454;-39
2023/11/12 04:28:00;;;;;;;2.47;1.60;;;;;;;19.38;63.80;100483.44;5053137;28;20083;-39
2023/11/12 04:30:26;;;;;;;2.70;1.90;;;;;;;19.37;63.89;100479.03;5056124;28;20075;-40
2023/11/12 04:32:51;;;;;;;2.67;1.60;;;;;;;19.37;63.91;100487.28;5050821;28;20032;-38
2023/11/12 04:35:19;;;;;;;2.38;1.85;;;;;;;19.37;63.81;100490.88;5041888;28;20028;-38
2023/11/12 04:37:44;;;;;;;2.55;1.92;;;;;;;19.38;63.80;100478.75;5042425;28;20034;-38
2023/11/12 04:40:11;;;;;;;2.63;1.60;;;;;;;19.38;63.88;100478.75;5054225;28;20032;-43
2023/11/12 04:42:37;;;;;;;2.30;1.77;;;;;;;19.39;63.83;100482.31;5042408;28;20033;-43
2023/11/12 04:45:04;;;;;;;3.17;1.92;;;;;;;19.38;63.55;100484.25;5060191;28;20013;-43
2023/11/12 04:47:29;;;;;;;3.38;1.77;;;;;;;19.38;63.70;100486.97;5054181;28;20082;-44
2023/11/12 04:49:54;;;;;;;3.10;1.85;;;;;;;19.38;64.01;100489.72;5049779;28;20024;-39
2023/11/12 04:52:20;;;;;;;2.38;1.65;;;;;;;19.37;64.11;100488.13;5044106;28;20405;-43
2023/11/12 04:54:47;;;;;;;3.60;1.92;;;;;;;19.36;64.16;100497.47;5050221;28;20578;-42
2023/11/12 04:57:13;;;;;;;4.30;1.73;;;;;;;19.35;64.15;100495.84;5048090;28;20052;-43
2023/11/12 04:59:40;;;;;;;2.78;1.60;;;;;;;19.34;64.09;100491.44;5059589;28;20025;-42
2023/11/12 05:02:06;;;;;;;2.17;1.80;;;;;;;19.33;64.09;100498.03;5048978;28;20473;-42
2023/11/12 05:04:31;;;;;;;3.80;1.80;;;;;;;19.32;64.17;100504.66;5056049;28;20354;-43
2023/11/12 05:06:57;;;;;;;2.92;1.80;;;;;;;19.32;63.95;100504.66;5050159;28;20590;-42
2023/11/12 05:09:22;;;;;;;2.00;1.80;;;;;;;19.32;63.97;100501.09;5055429;28;20082;-39
2023/11/12 05:11:47;;;;;;;4.47;1.60;;;;;;;19.31;64.15;100496.72;5050157;28;20024;-39
2023/11/12 05:14:14;;;;;;;4.78;2.20;;;;;;;19.31;64.14;100502.19;5045962;28;20109;-43
2023/11/12 05:16:42;;;;;;;2.22;1.73;;;;;;;19.30;64.24;100512.38;5040556;28;20028;-38
2023/11/12 05:19:07;;;;;;;3.47;1.80;;;;;;;19.29;64.34;100497.00;5044533;28;20037;-38
2023/11/12 05:21:33;;;;;;;3.50;1.60;;;;;;;19.29;64.36;100496.19;5046469;28;20061;-38
2023/11/12 05:23:58;;;;;;;2.10;1.70;;;;;;;19.28;64.13;100505.56;5060019;28;20044;-39
2023/11/12 05:26:24;;;;;;;2.40;1.55;;;;;;;19.28;64.19;100505.56;5056200;28;20028;-38
2023/11/12 05:28:49;;;;;;;4.35;1.80;;;;;;;19.28;64.41;100513.78;5049783;28;20407;-42
2023/11/12 05:31:15;;;;;;;2.25;1.60;;;;;;;19.27;64.21;100506.66;5048391;28;20031;-44
2023/11/12 05:33:41;;;;;;;2.42;1.83;;;;;;;19.26;64.25;100503.06;5049997;28;20071;-43
2023/11/12 05:36:07;;;;;;;2.85;1.80;;;;;;;19.26;64.30;100507.78;5052747;28;20481;-42
2023/11/12 05:38:34;;;;;;;3.38;1.80;;;;;;;19.24;64.39;100506.13;5034538;28;20051;-43
2023/11/12 05:40:59;;;;;;;2.83;1.92;;;;;;;19.25;64.27;100509.69;5055187;28;20060;-43
2023/11/12 05:43:25;;;;;;;2.22;1.90;;;;;;;19.25;64.13;100512.44;5056786;28;20038;-42
2023/11/12 05:45:50;;;;;;;2.45;1.80;;;;;;;19.24;64.38;100514.38;5056050;28;20048;-40
2023/11/12 05:48:16;;;;;;;1.73;1.63;;;;;;;19.24;64.55;100513.56;5061866;28;20120;-43
2023/11/12 05:50:42;;;;;;;2.50;1.70;;;;;;;19.24;64.47;100514.38;5050939;28;20421;-43
2023/11/12 05:53:07;;;;;;;2.13;1.65;;;;;;;19.23;64.40;100518.22;5042989;28;20324;-43
2023/11/12 05:55:33;;;;;;;2.08;1.60;;;;;;;19.23;64.62;100509.97;5041876;28;20045;-42
2023/11/12 05:57:58;;;;;;;3.00;1.80;;;;;;;19.24;64.46;100516.31;5048894;28;20047;-46
2023/11/12 06:00:23;;;;;;;6.28;1.90;;;;;;;19.24;64.38;100516.31;5049641;28;20035;-42
2023/11/12 06:02:49;;;;;;;3.03;1.77;;;;;;;19.22;64.56;100522.06;5055991;28;20032;-43
2023/11/12 06:05:14;;;;;;;6.03;1.90;;;;;;;19.22;64.68;100524.81;5056862;28;20528;-44
2023/11/12 06:07:39;;;;;;;2.08;1.60;;;;;;;19.22;64.76;100526.75;5049119;28;20052;-42
2023/11/12 06:10:06;;;;;;;3.17;1.95;;;;;;;19.21;64.67;100525.97;5051182;28;20028;-42
2023/11/12 06:12:31;;;;;;;2.70;1.80;;;;;;;19.20;64.73;100529.81;5052416;28;20107;-38
2023/11/12 06:14:56;;;;;;;2.42;1.83;;;;;;;19.20;64.75;100528.97;5046973;28;20027;-38
2023/11/12 06:17:24;;;;;;;3.17;1.80;;;;;;;19.19;64.50;100530.91;5040510;28;20095;-37
2023/11/12 06:19:51;;;;;;;3.28;1.95;;;;;;;19.19;64.70;100530.09;5031641;28;20060;-38
2023/11/12 06:22:16;;;;;;;2.40;1.70;;;;;;;19.20;64.54;100526.22;5057008;28;20041;-39
2023/11/12 06:24:42;;;;;;;2.75;1.70;;;;;;;19.19;64.81;100532.81;5056943;28;20231;-42
2023/11/12 06:27:07;;;;;;;2.78;1.50;;;;;;;19.18;64.67;100531.22;5053145;28;20482;-43
2023/11/12 06:29:35;;;;;;;2.70;1.67;;;;;;;19.18;64.68;100529.28;5049970;28;20477;-38
2023/11/12 06:32:01;;;;;;;2.15;1.80;;;;;;;19.18;64.96;100528.47;5028018;28;20433;-39
2023/11/12 06:34:26;;;;;;;1.95;1.60;;;;;;;19.23;64.88;100531.16;5031199;28;20076;-38
2023/11/12 06:36:51;;;;;;;2.92;1.92;;;;;;;19.30;64.49;100537.13;5050416;28;20468;-38
2023/11/12 06:39:17;;;;;;;2.67;1.80;;;;;;;19.37;64.57;100534.00;5047918;28;20036;-38
2023/11/12 06:41:43;;;;;;;2.47;1.60;;;;;;;19.46;64.16;100531.41;5041911;28;20079;-39
2023/11/12 06:44:09;;;;;;;2.65;1.80;;;;;;;19.54;64.22;100526.06;5043122;28;20025;-38
2023/11/12 06:46:36;;;;;;;3.13;1.67;;;;;;;19.64;63.86;100530.63;5046119;28;20024;-38
2023/11/12 06:49:01;;;;;;;3.58;1.70;;;;;;;19.76;63.96;100532.94;5048578;28;20110;-39
2023/11/12 06:51:27;;;;;;;3.75;1.80;;;;;;;19.88;63.83;100535.31;5046501;28;20025;-39
2023/11/12 06:53:52;;;;;;;2.38;1.50;;;;;;;19.99;63.55;100530.47;5048213;28;20032;-38
2023/11/12 06:56:18;;;;;;;2.22;1.65;;;;;;;20.11;63.58;100530.00;5034253;28;20041;-38
2023/11/12 06:58:43;;;;;;;2.35;1.67;;;;;;;20.24;63.33;100536.69;5027619;28;20029;-39
2023/11/12 07:01:09;;;;;;;3.90;1.75;;;;;;;20.35;63.18;100532.66;5033021;28;20033;-39
2023/11/12 07:03:34;;;;;;;2.60;1.60;;;;;;;20.49;63.06;100540.94;5039054;28;20029;-39
2023/11/12 07:05:59;;;;;;;1.88;1.60;;;;;;;20.62;63.04;100547.63;5037023;28;20034;-39
2023/11/12 07:08:25;;;;;;;2.17;1.55;;;;;;;20.73;62.98;100546.34;5025051;28;20491;-39
2023/11/12 07:10:55;;;;;;;2.22;1.65;;;;;;;20.84;62.83;100542.31;5036125;28;20132;-39
2023/11/12 07:13:20;;;;;;;2.25;1.63;;;;;;;20.96;62.42;100544.56;5035158;28;20048;-38
2023/11/12 07:15:45;;;;;;;1.65;1.38;;;;;;;21.08;62.52;100546.84;5045957;28;20690;-39
2023/11/12 07:18:11;;;;;;;1.70;1.40;;;;;;;21.20;62.29;100549.09;5044670;28;20086;-39
2023/11/12 07:20:37;;;;;;;1.88;1.63;;;;;;;21.31;61.96;100552.44;5046225;28;20024;-39
2023/11/12 07:23:03;;;;;;;2.15;1.67;;;;;;;21.42;61.76;100556.66;5049039;28;20548;-39
2023/11/12 07:25:28;;;;;;;2.60;1.70;;;;;;;21.52;61.62;100561.13;5051945;28;20119;-39
2023/11/12 07:27:53;;;;;;;1.70;1.60;;;;;;;21.61;61.73;100564.81;5049908;28;20098;-38
2023/11/12 07:30:19;;;;;;;1.75;1.65;;;;;;;21.72;61.46;100556.34;5054865;28;20061;-39
2023/11/12 07:32:45;;;;;;;2.60;1.60;;;;;;;21.79;61.45;100562.25;5046177;28;20409;-39
2023/11/12 07:35:13;;;;;;;2.15;1.60;;;;;;;21.81;61.09;100559.97;5042306;28;20361;-38
2023/11/12 07:37:40;;;;;;;2.92;1.67;;;;;;;21.80;61.00;100559.19;5038273;28;20504;-39
2023/11/12 07:40:10;;;;;;;3.10;1.90;;;;;;;21.80;61.41;100561.94;5051873;28;20111;-39
2023/11/12 07:42:39;;;;;;;2.40;1.75;;;;;;;21.79;61.38;100562.25;5044935;28;20049;-39
2023/11/12 07:45:08;;;;;;;2.35;1.80;;;;;;;21.77;61.46;100562.53;5053716;28;20016;-39
2023/11/12 07:47:40;;;;;;;1.73;1.60;;;;;;;21.77;61.08;100565.28;5047382;28;20033;-40
2023/11/12 07:50:07;;;;;;;2.60;1.67;;;;;;;21.76;61.22;100571.13;5044947;28;20549;-40
2023/11/12 07:52:32;;;;;;;2.67;1.88;;;;;;;21.75;61.24;100578.59;5042562;28;20029;-40
2023/11/12 07:54:58;;;;;;;3.92;1.55;;;;;;;21.72;61.42;100576.44;5050892;28;20328;-43
2023/11/12 07:57:24;;;;;;;2.20;1.60;;;;;;;21.69;61.59;100581.75;5046646;28;20025;-43
2023/11/12 07:59:50;;;;;;;2.03;1.88;;;;;;;21.66;61.79;100585.16;5037717;28;20028;-43
2023/11/12 08:02:16;;;;;;;2.00;1.60;;;;;;;21.61;61.63;100586.06;5055192;28;20068;-42
2023/11/12 08:04:42;;;;;;;1.90;1.70;;;;;;;21.57;61.53;100588.63;5059706;28;20029;-43
2023/11/12 08:07:07;;;;;;;3.03;1.88;;;;;;;21.53;61.50;100587.56;5051323;28;20028;-42
2023/11/12 08:09:32;;;;;;;3.75;1.58;;;;;;;21.48;61.82;100582.16;5058305;28;20078;-42
2023/11/12 08:11:58;;;;;;;2.85;1.80;;;;;;;21.45;61.76;100589.09;5048245;28;20146;-42
2023/11/12 08:14:24;;;;;;;3.80;1.83;;;;;;;21.40;61.93;100583.69;5045512;28;20110;-43
2023/11/12 08:16:50;;;;;;;2.80;1.73;;;;;;;21.36;61.96;100584.59;5044038;28;20461;-43
2023/11/12 08:19:15;;;;;;;2.60;1.60;;;;;;;21.31;62.09;100588.28;5028482;28;20025;-43
2023/11/12 08:21:41;;;;;;;5.40;1.85;;;;;;;21.26;62.07;100583.69;5057107;28;20025;-43
2023/11/12 08:24:07;;;;;;;4.95;1.65;;;;;;;21.23;62.25;100581.53;5065241;28;20028;-43
2023/11/12 08:26:38;;;;;;;4.18;2.10;;;;;;;21.19;62.39;100582.44;5058501;28;20028;-43
2023/11/12 08:29:06;;;;;;;2.22;1.80;;;;;;;21.15;62.08;100583.06;5041689;28;20069;-44
2023/11/12 08:31:36;;;;;;;3.05;1.80;;;;;;;21.13;62.57;100581.75;5048682;28;20040;-43
2023/11/12 08:34:03;;;;;;;3.63;1.90;;;;;;;21.11;62.23;100586.72;5046114;28;20028;-43
2023/11/12 08:36:29;;;;;;;3.33;2.00;;;;;;;21.09;62.43;100591.72;5052377;28;21122;-43
2023/11/12 08:38:54;;;;;;;2.03;1.73;;;;;;;21.04;62.52;100592.66;5046692;28;20032;-42
2023/11/12 08:41:20;;;;;;;3.35;2.03;;;;;;;20.99;62.35;100590.81;5043868;28;20118;-43
2023/11/12 08:43:46;;;;;;;3.25;1.83;;;;;;;20.97;62.16;100592.22;5061680;28;20059;-43
2023/11/12 08:46:13;;;;;;;4.38;2.20;;;;;;;20.94;62.46;100587.31;5054221;28;20056;-43
2023/11/12 08:48:42;;;;;;;3.38;2.00;;;;;;;20.90;62.62;100586.28;5060006;28;20468;-43
2023/11/12 08:51:11;;;;;;;4.82;2.30;;;;;;;20.89;62.49;100592.91;5055198;28;20430;-42
2023/11/12 08:53:37;;;;;;;3.53;2.03;;;;;;;20.82;62.50;100594.13;5051758;28;20033;-43
2023/11/12 08:56:03;;;;;;;3.05;2.25;;;;;;;20.82;62.66;100599.63;5040453;28;20050;-43
2023/11/12 08:58:28;;;;;;;3.92;2.30;;;;;;;20.80;62.82;100598.31;5044073;28;20248;-42
2023/11/12 09:00:54;;;;;;;6.03;2.60;;;;;;;20.78;62.81;100606.84;5053875;28;20055;-42
2023/11/12 09:03:20;;;;;;;5.32;2.42;;;;;;;20.77;62.48;100601.66;5058702;28;20028;-44
2023/11/12 09:05:45;;;;;;;5.38;2.20;;;;;;;20.76;62.60;100611.03;5051358;28;20032;-42
2023/11/12 09:08:11;;;;;;;7.80;2.80;;;;;;;20.74;62.66;100605.81;5056040;28;20115;-43
2023/11/12 09:10:37;;;;;;;5.43;2.55;;;;;;;20.72;62.55;100610.81;5049193;28;20322;-43
2023/11/12 09:13:03;;;;;;;4.25;2.33;;;;;;;20.71;62.44;100608.34;5048609;28;20029;-43
2023/11/12 09:15:28;;;;;;;4.00;2.40;;;;;;;20.69;62.43;100603.13;5050356;28;20033;-43
2023/11/12 09:17:55;;;;;;;3.40;2.55;;;;;;;20.67;62.73;100611.69;5045266;28;20028;-42
2023/11/12 09:20:22;;;;;;;3.40;2.45;;;;;;;20.65;63.00;100611.19;5038677;28;20489;-43
2023/11/12 09:22:48;;;;;;;3.55;2.42;;;;;;;20.63;62.90;100607.09;5054257;28;20679;-44
2023/11/12 09:25:13;;;;;;;4.22;2.30;;;;;;;20.62;62.65;100610.97;5057909;28;20021;-44
2023/11/12 09:27:39;;;;;;;5.65;2.70;;;;;;;20.61;62.88;100623.09;5060206;28;20030;-44
2023/11/12 09:30:05;;;;;;;3.42;2.65;;;;;;;20.58;62.88;100621.75;5056488;28;20024;-42
2023/11/12 09:32:31;;;;;;;3.15;2.33;;;;;;;20.58;62.62;100620.94;5051460;28;20038;-43
2023/11/12 09:34:56;;;;;;;6.07;2.80;;;;;;;20.56;62.80;100623.16;5044535;28;20536;-44
2023/11/12 09:37:22;;;;;;;3.67;2.33;;;;;;;20.55;62.92;100627.03;5048263;28;20589;-43
2023/11/12 09:39:47;;;;;;;3.78;2.47;;;;;;;20.55;62.71;100629.78;5050714;28;20082;-43
2023/11/12 09:42:18;;;;;;;3.88;2.90;;;;;;;20.52;62.88;100625.69;5044472;28;20043;-44
2023/11/12 09:44:45;;;;;;;3.80;2.40;;;;;;;20.51;62.84;100626.81;5055973;28;20427;-44
2023/11/12 09:47:27;;;;;;;4.95;2.40;;;;;;;20.50;63.04;100631.50;5042449;28;20108;-43
2023/11/12 09:49:53;;;;;;;3.92;2.50;;;;;;;20.51;62.88;100626.81;5052632;28;20613;-47
2023/11/12 09:52:22;;;;;;;4.95;2.45;;;;;;;20.50;62.90;100623.25;5049154;28;20068;-43
2023/11/12 09:54:47;;;;;;;5.00;2.78;;;;;;;20.50;63.07;100631.50;5053162;28;20033;-39
2023/11/12 09:57:13;;;;;;;4.20;2.70;;;;;;;20.52;62.72;100631.22;5049313;28;20421;-39
2023/11/12 09:59:38;;;;;;;4.22;2.47;;;;;;;20.53;63.01;100633.66;5040895;28;20032;-39
2023/11/12 10:02:06;;;;;;;4.80;2.63;;;;;;;20.54;62.82;100640.00;5047292;28;20029;-40
2023/11/12 10:04:32;;;;;;;3.78;2.40;;;;;;;20.54;62.81;100637.25;5049013;28;20111;-38
2023/11/12 10:06:57;;;;;;;4.15;2.45;;;;;;;20.55;62.82;100643.56;5050017;28;20017;-38
2023/11/12 10:09:30;;;;;;;3.35;2.70;;;;;;;20.56;62.48;100636.94;5057661;28;20404;-38
2023/11/12 10:12:06;;;;;;;133.57;10.32;;;;;;;20.30;63.50;100640.06;5052014;28;20468;-58
2023/11/12 10:14:31;;;;;;;28.23;4.55;;;;;;;19.87;64.36;100643.66;5039655;28;20086;-49
2023/11/12 10:17:05;;;;;;;120.57;7.93;;;;;;;19.60;65.29;100645.03;5042299;28;20533;-32
2023/11/12 10:19:30;;;;;;;14.00;3.20;;;;;;;19.51;66.03;100642.13;5041479;28;20033;-33
2023/11/12 10:21:58;;;;;;;13.75;3.20;;;;;;;19.52;65.90;100645.69;5053301;28;20047;-33
2023/11/12 10:24:30;;;;;;;18.13;3.70;;;;;;;19.56;65.75;100636.56;5065068;28;20016;-36
2023/11/12 10:26:57;;;;;;;11.18;3.28;;;;;;;19.63;65.59;100638.13;5057359;28;20507;-35
2023/11/12 10:29:23;;;;;;;6.75;2.75;;;;;;;19.69;65.36;100637.81;5055529;28;20504;-33
2023/11/12 10:31:49;;;;;;;11.93;3.00;;;;;;;19.76;65.16;100648.44;5046642;28;20024;-35
2023/11/12 10:34:19;;;;;;;5.38;2.83;;;;;;;19.81;65.26;100644.81;5051801;28;20029;-36
2023/11/12 10:37:19;;;;;;;7.45;2.65;;;;;;;19.86;64.97;100642.03;5055504;28;20047;-33
2023/11/12 10:39:46;;;;;;;11.05;3.38;;;;;;;19.95;65.08;100644.94;5048478;28;20094;-35
2023/11/12 10:42:24;;;;;;;9.98;2.67;;;;;;;20.00;64.96;100645.69;5038486;28;20465;-34
2023/11/12 10:44:57;;;;;;;9.43;2.75;;;;;;;20.08;65.08;100640.66;5033520;28;20068;-33
2023/11/12 10:47:23;;;;;;;7.97;2.40;;;;;;;20.13;65.01;100649.63;5027551;28;20116;-33
2023/11/12 10:49:49;;;;;;;4.00;2.42;;;;;;;20.17;64.88;100645.19;5041060;28;20096;-33
2023/11/12 10:52:15;;;;;;;5.53;2.60;;;;;;;20.22;64.75;100654.50;5038691;28;20025;-33
2023/11/12 10:54:41;;;;;;;5.57;2.65;;;;;;;20.24;64.48;100653.06;5083656;28;20029;-33
2023/11/12 10:57:07;;;;;;;7.25;2.75;;;;;;;20.27;64.72;100652.50;5046889;28;20048;-32
2023/11/12 10:59:34;;;;;;;7.35;2.42;;;;;;;20.30;64.52;100656.59;5038953;28;20051;-32
2023/11/12 11:02:01;;;;;;;5.38;2.50;;;;;;;20.31;64.44;100663.72;5038678;28;20025;-33
2023/11/12 11:04:26;;;;;;;5.38;2.83;;;;;;;20.32;64.57;100659.88;5057430;28;20440;-33
2023/11/12 11:06:52;;;;;;;5.07;2.53;;;;;;;20.34;64.30;100668.63;5046748;28;20032;-32
2023/11/12 11:09:18;;;;;;;4.47;2.63;;;;;;;20.36;64.50;100669.16;5049831;28;20372;-32
2023/11/12 11:11:47;;;;;;;5.32;2.75;;;;;;;20.36;64.36;100669.97;5032905;28;20083;-32
2023/11/12 11:14:29;;;;;;;5.25;2.97;;;;;;;20.36;64.37;100678.22;5041803;28;20036;-34
2023/11/12 11:16:54;;;;;;;4.57;3.35;;;;;;;20.38;64.10;100685.38;5044836;28;20494;-34
2023/11/12 11:19:48;;;;;;;6.28;3.85;;;;;;;20.37;64.41;100681.81;5031650;28;20029;-33
2023/11/12 11:22:32;;;;;;;6.30;4.18;;;;;;;20.37;64.14;100695.56;5043613;28;20479;-33